Time;durP1;ratioP1;P1;durP2;ratioP2;P2;SDS_P1;SDS_P2;PMS_P1;PMS_P2;Temp;Humidity;BMP_temperature;BMP_pressure;BME280_temperature;BME280_humidity;BME280_pressure;Samples;Min_cycle;Max_cycle;Signal;HPM_P1;HPM_P2
2022/11/13 04:44:47;;;;;;;1999.90;999.90;;;;;;;;;;5064447;22;20288;-72
2022/11/13 04:47:32;;;;;;;1999.90;999.90;;;;;;;;;;5071826;28;20217;-73
2022/11/13 04:50:17;;;;;;;1999.90;999.90;;;;;;;;;;5055381;28;20340;-72
2022/11/13 04:53:02;;;;;;;1999.90;999.90;;;;;;;;;;5044576;28;20235;-72
2022/11/13 04:55:46;;;;;;;1999.90;999.90;;;;;;;;;;5031955;28;20229;-72
2022/11/13 04:58:31;;;;;;;1999.90;999.90;;;;;;;;;;5032442;28;20211;-73
2022/11/13 05:01:18;;;;;;;1999.90;999.90;;;;;;;;;;5031546;28;20418;-72
2022/11/13 05:04:02;;;;;;;1999.90;999.90;;;;;;;;;;5032033;28;20243;-73
2022/11/13 05:06:47;;;;;;;1999.90;999.90;;;;;;;;;;5032243;28;20211;-72
2022/11/13 05:09:32;;;;;;;1999.90;999.90;;;;;;;;;;5031883;28;20215;-72
2022/11/13 05:12:17;;;;;;;1999.90;999.90;;;;;;;;;;5032054;28;20203;-72
2022/11/13 05:15:01;;;;;;;1999.90;999.90;;;;;;;;;;5031547;28;20238;-71
2022/11/13 05:17:49;;;;;;;1999.90;999.90;;;;;;;;;;5031560;28;20687;-73
2022/11/13 05:20:35;;;;;;;1999.90;999.90;;;;;;;;;;5031024;28;20411;-71
2022/11/13 05:23:20;;;;;;;1999.90;999.90;;;;;;;;;;5031824;28;20231;-70
2022/11/13 05:26:05;;;;;;;1999.90;999.90;;;;;;;;;;5031951;28;20814;-71
2022/11/13 05:28:50;;;;;;;1999.90;999.90;;;;;;;;;;5031670;28;20353;-71
2022/11/13 05:31:37;;;;;;;1999.90;999.90;;;;;;;;;;5030606;28;20251;-72
2022/11/13 05:34:23;;;;;;;1999.90;999.90;;;;;;;;;;5031056;28;20265;-72
2022/11/13 05:37:08;;;;;;;1999.90;999.90;;;;;;;;;;5031685;28;20223;-72
2022/11/13 05:39:53;;;;;;;1999.90;999.90;;;;;;;;;;5031505;28;20210;-72
2022/11/13 05:42:39;;;;;;;1999.90;999.90;;;;;;;;;;5031073;28;20716;-72
2022/11/13 05:45:23;;;;;;;1999.90;999.90;;;;;;;;;;5031021;28;20222;-72
2022/11/13 05:48:08;;;;;;;1999.90;999.90;;;;;;;;;;5031414;28;20199;-72
2022/11/13 05:51:00;;;;;;;1999.90;999.90;;;;;;;;;;5031405;28;20617;-70
2022/11/13 05:53:45;;;;;;;1999.90;999.90;;;;;;;;;;5030992;28;20278;-72
2022/11/13 05:56:31;;;;;;;1999.90;999.90;;;;;;;;;;5031090;28;20206;-73
2022/11/13 05:59:16;;;;;;;1999.90;999.90;;;;;;;;;;5031325;28;20205;-72
2022/11/13 06:02:01;;;;;;;1999.90;999.90;;;;;;;;;;5031200;28;20700;-72
2022/11/13 06:04:48;;;;;;;1999.90;999.90;;;;;;;;;;5030619;28;20197;-71
2022/11/13 06:07:34;;;;;;;1999.90;999.90;;;;;;;;;;5031160;28;20205;-72
2022/11/13 06:10:19;;;;;;;1999.90;999.90;;;;;;;;;;5031140;28;20211;-72
2022/11/13 06:13:04;;;;;;;1999.90;999.90;;;;;;;;;;5031011;28;20238;-72
2022/11/13 06:15:48;;;;;;;1999.90;999.90;;;;;;;;;;5030572;28;20738;-72
2022/11/13 06:18:34;;;;;;;1999.90;999.90;;;;;;;;;;5031088;28;20211;-72
2022/11/13 06:21:19;;;;;;;1999.90;999.90;;;;;;;;;;5030347;28;20217;-70
2022/11/13 06:24:07;;;;;;;1999.90;999.90;;;;;;;;;;5035346;28;20221;-73
2022/11/13 06:26:52;;;;;;;1999.90;999.90;;;;;;;;;;5031032;28;20585;-72
2022/11/13 06:29:37;;;;;;;1999.90;999.90;;;;;;;;;;5044205;28;20678;-73
2022/11/13 06:32:22;;;;;;;1999.90;999.90;;;;;;;;;;5049641;28;20220;-72
2022/11/13 06:35:07;;;;;;;1999.90;999.90;;;;;;;;;;5049191;28;20794;-72
2022/11/13 06:37:54;;;;;;;1999.90;999.90;;;;;;;;;;5049540;28;20926;-73
2022/11/13 06:40:40;;;;;;;1999.90;999.90;;;;;;;;;;5037302;28;20208;-69
2022/11/13 06:43:25;;;;;;;1999.90;999.90;;;;;;;;;;5053274;28;20397;-70
2022/11/13 06:46:11;;;;;;;1999.90;999.90;;;;;;;;;;5053609;28;20203;-72
2022/11/13 06:48:56;;;;;;;1999.90;999.90;;;;;;;;;;5033256;28;20202;-72
2022/11/13 06:51:41;;;;;;;1999.90;999.90;;;;;;;;;;5034726;28;20205;-71
2022/11/13 06:54:26;;;;;;;1999.90;999.90;;;;;;;;;;5034475;28;20819;-71
2022/11/13 06:57:12;;;;;;;1999.90;999.90;;;;;;;;;;5034926;28;20206;-72
2022/11/13 06:59:57;;;;;;;1999.90;999.90;;;;;;;;;;5034857;28;20751;-69
2022/11/13 07:02:42;;;;;;;1999.90;999.90;;;;;;;;;;5034627;28;20234;-71
2022/11/13 07:05:27;;;;;;;1999.90;999.90;;;;;;;;;;5052697;28;20205;-69
2022/11/13 07:08:12;;;;;;;1999.90;999.90;;;;;;;;;;5046389;28;20252;-71
2022/11/13 07:10:58;;;;;;;1999.90;999.90;;;;;;;;;;5034632;28;20209;-71
2022/11/13 07:13:44;;;;;;;1999.90;999.90;;;;;;;;;;5035128;28;20230;-71
2022/11/13 07:16:29;;;;;;;1999.90;999.90;;;;;;;;;;5035249;28;20221;-72
2022/11/13 07:19:14;;;;;;;1999.90;999.90;;;;;;;;;;5052481;28;20283;-72
2022/11/13 07:22:00;;;;;;;1999.90;999.90;;;;;;;;;;5050962;28;20609;-73
2022/11/13 07:24:45;;;;;;;1999.90;999.90;;;;;;;;;;5031453;28;20218;-72
2022/11/13 07:27:30;;;;;;;1999.90;999.90;;;;;;;;;;5035248;28;20223;-72
2022/11/13 07:30:17;;;;;;;1999.90;999.90;;;;;;;;;;5034506;28;20210;-71
2022/11/13 07:33:02;;;;;;;1999.90;999.90;;;;;;;;;;5033848;28;20356;-71
2022/11/13 07:35:47;;;;;;;1999.90;999.90;;;;;;;;;;5033656;28;20269;-72
2022/11/13 07:38:32;;;;;;;1999.90;999.90;;;;;;;;;;5051644;28;20915;-72
2022/11/13 07:41:17;;;;;;;1999.90;999.90;;;;;;;;;;5052869;28;20272;-69
2022/11/13 07:44:03;;;;;;;1999.90;999.90;;;;;;;;;;5052147;28;20712;-72
2022/11/13 07:46:49;;;;;;;1999.90;999.90;;;;;;;;;;5046347;28;20685;-69
2022/11/13 07:49:34;;;;;;;1999.90;999.90;;;;;;;;;;5037223;28;20214;-71
2022/11/13 07:52:19;;;;;;;1999.90;999.90;;;;;;;;;;5030202;28;20696;-71
2022/11/13 07:55:04;;;;;;;1999.90;999.90;;;;;;;;;;5052130;28;20222;-72
2022/11/13 07:57:49;;;;;;;1999.90;999.90;;;;;;;;;;5047888;28;20421;-69
2022/11/13 08:00:34;;;;;;;1999.90;999.90;;;;;;;;;;5031791;28;20191;-71
2022/11/13 08:03:21;;;;;;;1999.90;999.90;;;;;;;;;;5033832;28;20264;-71
2022/11/13 08:06:07;;;;;;;1999.90;999.90;;;;;;;;;;5032940;28;20206;-72
2022/11/13 08:08:52;;;;;;;1999.90;999.90;;;;;;;;;;5033222;28;20207;-71
2022/11/13 08:11:36;;;;;;;1999.90;999.90;;;;;;;;;;5033382;28;20255;-71
2022/11/13 08:14:21;;;;;;;1999.90;999.90;;;;;;;;;;5033025;28;20303;-71
2022/11/13 08:17:07;;;;;;;1999.90;999.90;;;;;;;;;;5040650;28;20291;-72
2022/11/13 08:19:53;;;;;;;1999.90;999.90;;;;;;;;;;5038790;28;20285;-75
2022/11/13 08:22:38;;;;;;;1999.90;999.90;;;;;;;;;;5033475;28;20226;-72
2022/11/13 08:25:22;;;;;;;1999.90;999.90;;;;;;;;;;5051697;28;20206;-74
2022/11/13 08:28:07;;;;;;;1999.90;999.90;;;;;;;;;;5040259;28;20695;-72
2022/11/13 08:30:52;;;;;;;1999.90;999.90;;;;;;;;;;5043203;28;20783;-73
2022/11/13 08:33:37;;;;;;;1999.90;999.90;;;;;;;;;;5031039;28;20229;-72
2022/11/13 08:36:23;;;;;;;1999.90;999.90;;;;;;;;;;5034005;28;20308;-72
2022/11/13 08:39:08;;;;;;;1999.90;999.90;;;;;;;;;;5030671;28;20684;-72
2022/11/13 08:41:53;;;;;;;1999.90;999.90;;;;;;;;;;5029919;28;20253;-74
2022/11/13 08:44:38;;;;;;;1999.90;999.90;;;;;;;;;;5032170;28;20217;-74
2022/11/13 08:47:23;;;;;;;1999.90;999.90;;;;;;;;;;5025820;28;20572;-73
2022/11/13 08:50:08;;;;;;;1999.90;999.90;;;;;;;;;;5026233;28;20276;-74
2022/11/13 08:52:55;;;;;;;1999.90;999.90;;;;;;;;;;5029327;28;20223;-75
2022/11/13 08:55:40;;;;;;;1999.90;999.90;;;;;;;;;;5026769;28;20496;-73
2022/11/13 08:58:25;;;;;;;1999.90;999.90;;;;;;;;;;5025373;28;20250;-74
2022/11/13 09:01:09;;;;;;;1999.90;999.90;;;;;;;;;;5033434;28;20221;-74
2022/11/13 09:03:54;;;;;;;1999.90;999.90;;;;;;;;;;5023905;28;20319;-72
2022/11/13 09:06:39;;;;;;;1999.90;999.90;;;;;;;;;;5030940;28;20286;-73
2022/11/13 09:09:25;;;;;;;1999.90;999.90;;;;;;;;;;5028559;28;20419;-73
2022/11/13 09:12:10;;;;;;;1999.90;999.90;;;;;;;;;;5030680;28;20339;-71
2022/11/13 09:14:55;;;;;;;1999.90;999.90;;;;;;;;;;5029900;28;20489;-73
2022/11/13 09:17:40;;;;;;;1999.90;999.90;;;;;;;;;;5028855;28;20216;-73
2022/11/13 09:20:25;;;;;;;1999.90;999.90;;;;;;;;;;5028980;28;20342;-73
2022/11/13 09:23:10;;;;;;;1999.90;999.90;;;;;;;;;;5029293;28;20228;-72
2022/11/13 09:25:56;;;;;;;1999.90;999.90;;;;;;;;;;5030215;28;20588;-73
2022/11/13 09:28:41;;;;;;;1999.90;999.90;;;;;;;;;;5027324;28;20460;-73
2022/11/13 09:31:26;;;;;;;1999.90;999.90;;;;;;;;;;5029586;28;20233;-73
2022/11/13 09:34:11;;;;;;;1999.90;999.90;;;;;;;;;;5027605;28;20809;-73
2022/11/13 09:36:56;;;;;;;1999.90;999.90;;;;;;;;;;5028696;28;20220;-73
2022/11/13 09:39:41;;;;;;;1999.90;999.90;;;;;;;;;;5028792;28;20327;-71
2022/11/13 09:42:28;;;;;;;1999.90;999.90;;;;;;;;;;5030333;28;20330;-71
2022/11/13 09:45:14;;;;;;;1999.90;999.90;;;;;;;;;;5030889;28;20205;-72
2022/11/13 09:48:03;;;;;;;1999.90;999.90;;;;;;;;;;5029304;28;20299;-74
2022/11/13 09:50:48;;;;;;;1999.90;999.90;;;;;;;;;;5029817;28;20201;-72
2022/11/13 09:53:35;;;;;;;1999.90;999.90;;;;;;;;;;5028222;28;20643;-73
2022/11/13 09:56:28;;;;;;;1999.90;999.90;;;;;;;;;;5029508;28;20221;-72
2022/11/13 09:59:21;;;;;;;1999.90;999.90;;;;;;;;;;5029257;28;20217;-71
2022/11/13 10:02:14;;;;;;;1999.90;999.90;;;;;;;;;;5023402;28;20240;-72
2022/11/13 10:05:02;;;;;;;1999.90;999.90;;;;;;;;;;5027227;28;20551;-72
2022/11/13 10:07:53;;;;;;;1999.90;999.90;;;;;;;;;;5030429;28;20580;-74
2022/11/13 10:10:48;;;;;;;1999.90;999.90;;;;;;;;;;5030915;28;20268;-73
2022/11/13 10:13:38;;;;;;;1999.90;999.90;;;;;;;;;;5032860;28;20835;-73
2022/11/13 10:16:29;;;;;;;1999.90;999.90;;;;;;;;;;5028586;28;20222;-74
2022/11/13 10:19:17;;;;;;;1999.90;999.90;;;;;;;;;;5027503;28;20862;-73
2022/11/13 10:22:03;;;;;;;1999.90;999.90;;;;;;;;;;5026443;28;20210;-73
2022/11/13 10:24:50;;;;;;;1999.90;999.90;;;;;;;;;;5026721;28;20615;-74
2022/11/13 10:27:35;;;;;;;1999.90;999.90;;;;;;;;;;5029567;28;20206;-74
2022/11/13 10:30:20;;;;;;;1999.90;999.90;;;;;;;;;;5027995;28;20769;-73
2022/11/13 10:33:08;;;;;;;1999.90;999.90;;;;;;;;;;5027991;28;20253;-74
2022/11/13 10:35:55;;;;;;;1999.90;999.90;;;;;;;;;;5028089;28;20218;-75
2022/11/13 10:38:43;;;;;;;1999.90;999.90;;;;;;;;;;5031503;28;20256;-73
2022/11/13 10:41:28;;;;;;;1999.90;999.90;;;;;;;;;;5028456;28;20206;-73
2022/11/13 10:44:22;;;;;;;1999.90;999.90;;;;;;;;;;5029060;28;20816;-73
2022/11/13 10:47:15;;;;;;;1999.90;999.90;;;;;;;;;;5032524;28;20333;-72
2022/11/13 10:50:10;;;;;;;1999.90;999.90;;;;;;;;;;5026235;28;20310;-74
2022/11/13 10:52:56;;;;;;;1999.90;999.90;;;;;;;;;;5027388;28;20230;-72
2022/11/13 10:55:41;;;;;;;1999.90;999.90;;;;;;;;;;5025101;28;20233;-74
2022/11/13 10:58:26;;;;;;;1999.90;999.90;;;;;;;;;;5029041;28;20592;-74
2022/11/13 11:01:14;;;;;;;1999.90;999.90;;;;;;;;;;5026155;28;20206;-73
2022/11/13 11:03:58;;;;;;;1999.90;999.90;;;;;;;;;;5028665;28;20262;-73
2022/11/13 11:06:45;;;;;;;1999.90;999.90;;;;;;;;;;5019998;28;20329;-73
2022/11/13 11:09:31;;;;;;;1999.90;999.90;;;;;;;;;;5025489;28;20238;-71
2022/11/13 11:12:22;;;;;;;1999.90;999.90;;;;;;;;;;5045676;28;20835;-72
2022/11/13 11:15:17;;;;;;;1999.90;999.90;;;;;;;;;;5036100;28;20217;-74
2022/11/13 11:18:03;;;;;;;1999.90;999.90;;;;;;;;;;5028760;28;20210;-74
2022/11/13 11:20:50;;;;;;;1999.90;999.90;;;;;;;;;;5022532;28;20731;-71
2022/11/13 11:23:41;;;;;;;1999.90;999.90;;;;;;;;;;5024331;28;20384;-73
2022/11/13 11:26:29;;;;;;;1999.90;999.90;;;;;;;;;;5017996;28;20447;-74
2022/11/13 11:29:17;;;;;;;1999.90;999.90;;;;;;;;;;5029896;28;20281;-71
2022/11/13 11:32:04;;;;;;;1999.90;999.90;;;;;;;;;;5024683;28;20744;-72
2022/11/13 11:34:54;;;;;;;1999.90;999.90;;;;;;;;;;5034579;28;20190;-73
2022/11/13 11:37:46;;;;;;;1999.90;999.90;;;;;;;;;;5014705;28;20600;-74
2022/11/13 11:40:35;;;;;;;1999.90;999.90;;;;;;;;;;5015083;28;20730;-72
2022/11/13 11:43:23;;;;;;;1999.90;999.90;;;;;;;;;;5014537;28;20325;-73
2022/11/13 11:46:10;;;;;;;1999.90;999.90;;;;;;;;;;5022072;28;20954;-74
2022/11/13 11:48:56;;;;;;;1999.90;999.90;;;;;;;;;;5034412;28;20256;-73
2022/11/13 11:51:44;;;;;;;1999.90;999.90;;;;;;;;;;5033752;28;20324;-74
2022/11/13 11:54:36;;;;;;;1999.90;999.90;;;;;;;;;;5032773;28;20230;-75
2022/11/13 11:57:30;;;;;;;1999.90;999.90;;;;;;;;;;5029589;28;20231;-73
2022/11/13 12:00:17;;;;;;;1999.90;999.90;;;;;;;;;;5031840;28;20214;-72
2022/11/13 12:03:10;;;;;;;1999.90;999.90;;;;;;;;;;5032122;28;20878;-75
2022/11/13 12:06:00;;;;;;;1999.90;999.90;;;;;;;;;;5033009;28;20261;-72
2022/11/13 12:08:46;;;;;;;1999.90;999.90;;;;;;;;;;5034747;28;20559;-73
2022/11/13 12:11:33;;;;;;;1999.90;999.90;;;;;;;;;;5032689;28;20274;-73
2022/11/13 12:14:23;;;;;;;1999.90;999.90;;;;;;;;;;5035451;28;20226;-71
2022/11/13 12:17:14;;;;;;;1999.90;999.90;;;;;;;;;;5036259;28;20270;-73
2022/11/13 12:20:03;;;;;;;1999.90;999.90;;;;;;;;;;5032587;28;20198;-74
2022/11/13 12:22:52;;;;;;;1999.90;999.90;;;;;;;;;;5030838;28;20591;-73
2022/11/13 12:25:41;;;;;;;1999.90;999.90;;;;;;;;;;5028860;28;20259;-73
2022/11/13 12:28:31;;;;;;;1999.90;999.90;;;;;;;;;;5032074;28;20588;-73
2022/11/13 12:31:24;;;;;;;1999.90;999.90;;;;;;;;;;5032634;28;20253;-74
2022/11/13 12:34:13;;;;;;;1999.90;999.90;;;;;;;;;;5030363;28;20304;-72
2022/11/13 12:36:59;;;;;;;1999.90;999.90;;;;;;;;;;5031159;28;20354;-73
2022/11/13 12:39:48;;;;;;;1999.90;999.90;;;;;;;;;;5032850;28;20730;-74
2022/11/13 12:42:35;;;;;;;1999.90;999.90;;;;;;;;;;5031284;28;20307;-73
2022/11/13 12:45:23;;;;;;;1999.90;999.90;;;;;;;;;;5030114;28;20261;-71
2022/11/13 12:48:10;;;;;;;1999.90;999.90;;;;;;;;;;5028475;28;20211;-73
2022/11/13 12:51:00;;;;;;;1999.90;999.90;;;;;;;;;;5030304;28;20215;-73
2022/11/13 12:53:46;;;;;;;1999.90;999.90;;;;;;;;;;5029085;28;20796;-75
2022/11/13 12:56:32;;;;;;;1999.90;999.90;;;;;;;;;;5029350;28;20217;-73
2022/11/13 12:59:30;;;;;;;1999.90;999.90;;;;;;;;;;5030175;28;20893;-73
2022/11/13 13:02:29;;;;;;;1999.90;999.90;;;;;;;;;;5029450;28;20782;-74
2022/11/13 13:05:20;;;;;;;1999.90;999.90;;;;;;;;;;5026742;28;20228;-73
2022/11/13 13:08:21;;;;;;;1999.90;999.90;;;;;;;;;;5030410;28;20200;-72
2022/11/13 13:11:12;;;;;;;1999.90;999.90;;;;;;;;;;5027105;28;20322;-74
2022/11/13 13:14:05;;;;;;;1999.90;999.90;;;;;;;;;;5030683;28;20225;-74
2022/11/13 13:16:50;;;;;;;1999.90;999.90;;;;;;;;;;5027287;28;20604;-74
2022/11/13 13:19:35;;;;;;;1999.90;999.90;;;;;;;;;;5028314;28;20291;-74
2022/11/13 13:22:31;;;;;;;1999.90;999.90;;;;;;;;;;5028582;28;20769;-74
2022/11/13 13:25:24;;;;;;;1999.90;999.90;;;;;;;;;;5029847;28;20271;-73
2022/11/13 13:28:18;;;;;;;1999.90;999.90;;;;;;;;;;5027125;28;20216;-73
2022/11/13 13:31:06;;;;;;;1999.90;999.90;;;;;;;;;;5028288;28;20211;-73
2022/11/13 13:33:55;;;;;;;1999.90;999.90;;;;;;;;;;5027315;28;20242;-73
2022/11/13 13:36:44;;;;;;;1999.90;999.90;;;;;;;;;;5028439;28;20228;-73
2022/11/13 13:39:37;;;;;;;1999.90;999.90;;;;;;;;;;5030295;28;20220;-74
2022/11/13 13:42:32;;;;;;;1999.90;999.90;;;;;;;;;;5025785;28;20793;-74
2022/11/13 13:45:31;;;;;;;1999.90;999.90;;;;;;;;;;5029500;28;20224;-73
2022/11/13 13:48:19;;;;;;;1999.90;999.90;;;;;;;;;;5028612;28;20349;-74
2022/11/13 13:51:05;;;;;;;1999.90;999.90;;;;;;;;;;5028048;28;20207;-74
2022/11/13 13:53:50;;;;;;;1999.90;999.90;;;;;;;;;;5029913;28;20347;-73
2022/11/13 13:56:42;;;;;;;1999.90;999.90;;;;;;;;;;5027122;28;20431;-70
2022/11/13 13:59:30;;;;;;;1999.90;999.90;;;;;;;;;;5027332;28;20217;-74
2022/11/13 14:02:16;;;;;;;1999.90;999.90;;;;;;;;;;5027412;28;20275;-74
2022/11/13 14:05:01;;;;;;;1999.90;999.90;;;;;;;;;;5027420;28;20227;-74
2022/11/13 14:07:46;;;;;;;1999.90;999.90;;;;;;;;;;5027126;28;20209;-74
2022/11/13 14:10:31;;;;;;;1999.90;999.90;;;;;;;;;;5029106;28;20208;-75
2022/11/13 14:13:24;;;;;;;1999.90;999.90;;;;;;;;;;5028088;28;20252;-75
2022/11/13 14:16:09;;;;;;;1999.90;999.90;;;;;;;;;;5025324;28;20505;-75
2022/11/13 14:19:02;;;;;;;1999.90;999.90;;;;;;;;;;5026198;28;20212;-74
2022/11/13 14:21:48;;;;;;;1999.90;999.90;;;;;;;;;;5024908;28;20815;-75
2022/11/13 14:24:34;;;;;;;1999.90;999.90;;;;;;;;;;5024148;28;20368;-75
2022/11/13 14:27:21;;;;;;;1999.90;999.90;;;;;;;;;;5028694;28;20208;-74
2022/11/13 14:30:21;;;;;;;1999.90;999.90;;;;;;;;;;5028032;28;20248;-75
2022/11/13 14:33:08;;;;;;;1999.90;999.90;;;;;;;;;;5027063;28;20226;-75
2022/11/13 14:35:54;;;;;;;1999.90;999.90;;;;;;;;;;5027799;28;20221;-75
2022/11/13 14:38:41;;;;;;;1999.90;999.90;;;;;;;;;;5024610;28;20291;-75
2022/11/13 14:41:29;;;;;;;1999.90;999.90;;;;;;;;;;5027796;28;20566;-73
2022/11/13 14:44:25;;;;;;;1999.90;999.90;;;;;;;;;;5028535;28;20322;-73
2022/11/13 14:47:21;;;;;;;1999.90;999.90;;;;;;;;;;5026658;28;20566;-75
2022/11/13 14:50:20;;;;;;;1999.90;999.90;;;;;;;;;;5028417;28;20333;-75
2022/11/13 14:53:06;;;;;;;1999.90;999.90;;;;;;;;;;5027840;28;20228;-74
2022/11/13 14:55:52;;;;;;;1999.90;999.90;;;;;;;;;;5028914;28;20210;-74
2022/11/13 14:58:39;;;;;;;1999.90;999.90;;;;;;;;;;5028433;28;20209;-75
2022/11/13 15:01:24;;;;;;;1999.90;999.90;;;;;;;;;;5027693;28;20240;-73
2022/11/13 15:04:11;;;;;;;1999.90;999.90;;;;;;;;;;5032779;28;20601;-72
2022/11/13 15:06:57;;;;;;;1999.90;999.90;;;;;;;;;;5030637;28;20801;-73
2022/11/13 15:09:42;;;;;;;1999.90;999.90;;;;;;;;;;5030905;28;20263;-73
2022/11/13 15:12:27;;;;;;;1999.90;999.90;;;;;;;;;;5031756;28;20213;-73
2022/11/13 15:15:14;;;;;;;1999.90;999.90;;;;;;;;;;5032130;28;20215;-74
2022/11/13 15:18:01;;;;;;;1999.90;999.90;;;;;;;;;;5033123;28;20228;-73
2022/11/13 15:20:47;;;;;;;1999.90;999.90;;;;;;;;;;5033549;28;20209;-73
2022/11/13 15:23:32;;;;;;;1999.90;999.90;;;;;;;;;;5032075;28;20719;-76
2022/11/13 15:26:17;;;;;;;1999.90;999.90;;;;;;;;;;5031918;28;20215;-75
2022/11/13 15:29:02;;;;;;;1999.90;999.90;;;;;;;;;;5031057;28;20209;-74
2022/11/13 15:31:47;;;;;;;1999.90;999.90;;;;;;;;;;5031555;28;20430;-74
2022/11/13 15:34:32;;;;;;;1999.90;999.90;;;;;;;;;;5030371;28;20282;-73
2022/11/13 15:37:18;;;;;;;1999.90;999.90;;;;;;;;;;5027036;28;20240;-74
2022/11/13 15:40:04;;;;;;;1999.90;999.90;;;;;;;;;;5031154;28;20207;-75
2022/11/13 15:42:49;;;;;;;1999.90;999.90;;;;;;;;;;5031279;28;20294;-74
2022/11/13 15:45:33;;;;;;;1999.90;999.90;;;;;;;;;;5028682;28;20280;-75
2022/11/13 15:48:18;;;;;;;1999.90;999.90;;;;;;;;;;5030145;28;20274;-74
2022/11/13 15:51:03;;;;;;;1999.90;999.90;;;;;;;;;;5032419;28;20218;-74
2022/11/13 15:53:51;;;;;;;1999.90;999.90;;;;;;;;;;5031487;28;20247;-73
2022/11/13 15:56:36;;;;;;;1999.90;999.90;;;;;;;;;;5031265;28;20214;-75
2022/11/13 15:59:22;;;;;;;1999.90;999.90;;;;;;;;;;5029483;28;20206;-72
2022/11/13 16:02:08;;;;;;;1999.90;999.90;;;;;;;;;;5029153;28;20314;-74
2022/11/13 16:04:53;;;;;;;1999.90;999.90;;;;;;;;;;5027137;28;20211;-75
2022/11/13 16:07:38;;;;;;;1999.90;999.90;;;;;;;;;;5031346;28;20569;-74
2022/11/13 16:10:25;;;;;;;1999.90;999.90;;;;;;;;;;5029438;28;20206;-73
2022/11/13 16:13:11;;;;;;;1999.90;999.90;;;;;;;;;;5030527;28;20331;-73
2022/11/13 16:15:55;;;;;;;1999.90;999.90;;;;;;;;;;5028073;28;20214;-75
2022/11/13 16:18:40;;;;;;;1999.90;999.90;;;;;;;;;;5027781;28;20223;-74
2022/11/13 16:21:25;;;;;;;1999.90;999.90;;;;;;;;;;5029678;28;20292;-74
2022/11/13 16:24:10;;;;;;;1999.90;999.90;;;;;;;;;;5030960;28;20276;-74
2022/11/13 16:26:57;;;;;;;1999.90;999.90;;;;;;;;;;5031501;28;20339;-75
2022/11/13 16:29:42;;;;;;;1999.90;999.90;;;;;;;;;;5025503;28;20426;-74
2022/11/13 16:32:27;;;;;;;1999.90;999.90;;;;;;;;;;5030094;28;20210;-73
2022/11/13 16:35:13;;;;;;;1999.90;999.90;;;;;;;;;;5028021;28;20281;-75
2022/11/13 16:37:58;;;;;;;1999.90;999.90;;;;;;;;;;5029487;28;20241;-71
2022/11/13 16:40:44;;;;;;;1999.90;999.90;;;;;;;;;;5032172;28;20296;-73
2022/11/13 16:43:30;;;;;;;1999.90;999.90;;;;;;;;;;5028990;28;20241;-73
2022/11/13 16:46:19;;;;;;;1999.90;999.90;;;;;;;;;;5028913;28;20198;-73
2022/11/13 16:49:04;;;;;;;1999.90;999.90;;;;;;;;;;5029222;28;20418;-72
2022/11/13 16:51:50;;;;;;;1999.90;999.90;;;;;;;;;;5031342;28;20203;-74
2022/11/13 16:54:35;;;;;;;1999.90;999.90;;;;;;;;;;5030676;28;20214;-75
2022/11/13 16:57:21;;;;;;;1999.90;999.90;;;;;;;;;;5033476;28;20218;-75
2022/11/13 17:00:10;;;;;;;1999.90;999.90;;;;;;;;;;5032337;28;20199;-75
2022/11/13 17:02:55;;;;;;;1999.90;999.90;;;;;;;;;;5031209;28;20225;-73
2022/11/13 17:05:40;;;;;;;1999.90;999.90;;;;;;;;;;5029601;28;20202;-74
2022/11/13 17:08:25;;;;;;;1999.90;999.90;;;;;;;;;;5029847;28;20588;-74
2022/11/13 17:11:11;;;;;;;1999.90;999.90;;;;;;;;;;5030686;28;20284;-74
2022/11/13 17:13:57;;;;;;;1999.90;999.90;;;;;;;;;;5028452;28;20229;-74
2022/11/13 17:16:43;;;;;;;1999.90;999.90;;;;;;;;;;5028674;28;20216;-72
2022/11/13 17:19:42;;;;;;;1999.90;999.90;;;;;;;;;;5027252;28;20293;-75
2022/11/13 17:22:27;;;;;;;1999.90;999.90;;;;;;;;;;5030194;28;20250;-72
2022/11/13 17:25:12;;;;;;;1999.90;999.90;;;;;;;;;;5031275;28;20691;-75
2022/11/13 17:27:57;;;;;;;1999.90;999.90;;;;;;;;;;5031120;28;20205;-74
2022/11/13 17:30:42;;;;;;;1999.90;999.90;;;;;;;;;;5029582;28;20214;-75
2022/11/13 17:33:28;;;;;;;1999.90;999.90;;;;;;;;;;5027481;28;20225;-74
2022/11/13 17:36:13;;;;;;;1999.90;999.90;;;;;;;;;;5027980;28;20587;-73
2022/11/13 17:38:58;;;;;;;1999.90;999.90;;;;;;;;;;5030332;28;20222;-74
2022/11/13 17:41:43;;;;;;;1999.90;999.90;;;;;;;;;;5029809;28;20304;-75
2022/11/13 17:44:27;;;;;;;1999.90;999.90;;;;;;;;;;5030386;28;20241;-75
2022/11/13 17:47:12;;;;;;;1999.90;999.90;;;;;;;;;;5028761;28;20406;-75
2022/11/13 17:49:58;;;;;;;1999.90;999.90;;;;;;;;;;5030043;28;20293;-74
2022/11/13 17:52:43;;;;;;;1999.90;999.90;;;;;;;;;;5030878;28;20353;-73
2022/11/13 17:55:28;;;;;;;1999.90;999.90;;;;;;;;;;5030335;28;20699;-74
2022/11/13 17:58:13;;;;;;;1999.90;999.90;;;;;;;;;;5030611;28;20233;-74
2022/11/13 18:01:03;;;;;;;1999.90;999.90;;;;;;;;;;5029861;28;20681;-74
2022/11/13 18:03:48;;;;;;;1999.90;999.90;;;;;;;;;;5029256;28;20222;-73
2022/11/13 18:06:34;;;;;;;1999.90;999.90;;;;;;;;;;5025860;28;20442;-74
2022/11/13 18:09:19;;;;;;;1999.90;999.90;;;;;;;;;;5030558;28;20201;-74
2022/11/13 18:12:04;;;;;;;1999.90;999.90;;;;;;;;;;5029697;28;20194;-72
2022/11/13 18:14:51;;;;;;;1999.90;999.90;;;;;;;;;;5029278;28;20783;-75
2022/11/13 18:17:36;;;;;;;1999.90;999.90;;;;;;;;;;5030035;28;20266;-75
2022/11/13 18:20:21;;;;;;;1999.90;999.90;;;;;;;;;;5030348;28;20217;-73
2022/11/13 18:23:08;;;;;;;1999.90;999.90;;;;;;;;;;5026481;28;20225;-73
2022/11/13 18:25:53;;;;;;;1999.90;999.90;;;;;;;;;;5030414;28;20194;-75
2022/11/13 18:28:39;;;;;;;1999.90;999.90;;;;;;;;;;5029803;28;20206;-75
2022/11/13 18:31:24;;;;;;;1999.90;999.90;;;;;;;;;;5029905;28;20210;-75
2022/11/13 18:34:11;;;;;;;1999.90;999.90;;;;;;;;;;5028188;28;20349;-74
2022/11/13 18:36:57;;;;;;;1999.90;999.90;;;;;;;;;;5029505;28;20638;-75
2022/11/13 18:39:43;;;;;;;1999.90;999.90;;;;;;;;;;5033154;28;20201;-74
2022/11/13 18:42:28;;;;;;;1999.90;999.90;;;;;;;;;;5032692;28;20329;-73
2022/11/13 18:45:15;;;;;;;1999.90;999.90;;;;;;;;;;5033885;28;20209;-75
2022/11/13 18:47:59;;;;;;;1999.90;999.90;;;;;;;;;;5033380;28;20577;-73
2022/11/13 18:50:54;;;;;;;1999.90;999.90;;;;;;;;;;5021311;28;20214;-71
2022/11/13 18:53:39;;;;;;;1999.90;999.90;;;;;;;;;;5033789;28;20703;-72
2022/11/13 18:56:26;;;;;;;1999.90;999.90;;;;;;;;;;5028128;28;20594;-74
2022/11/13 18:59:11;;;;;;;1999.90;999.90;;;;;;;;;;5035475;28;20727;-73
2022/11/13 19:01:56;;;;;;;1999.90;999.90;;;;;;;;;;5015520;28;20498;-73
2022/11/13 19:04:41;;;;;;;1999.90;999.90;;;;;;;;;;5034973;28;20570;-73
2022/11/13 19:07:26;;;;;;;1999.90;999.90;;;;;;;;;;5015636;28;20217;-73
2022/11/13 19:10:11;;;;;;;1999.90;999.90;;;;;;;;;;5034906;28;20261;-73
2022/11/13 19:12:57;;;;;;;1999.90;999.90;;;;;;;;;;5033918;28;20736;-74
2022/11/13 19:15:42;;;;;;;1999.90;999.90;;;;;;;;;;5029720;28;20213;-73
2022/11/13 19:18:26;;;;;;;1999.90;999.90;;;;;;;;;;5035024;28;20213;-73
2022/11/13 19:21:12;;;;;;;1999.90;999.90;;;;;;;;;;5035201;28;20202;-74
2022/11/13 19:23:58;;;;;;;1999.90;999.90;;;;;;;;;;5032501;28;20421;-73
2022/11/13 19:26:44;;;;;;;1999.90;999.90;;;;;;;;;;5035020;28;20237;-73
2022/11/13 19:29:31;;;;;;;1999.90;999.90;;;;;;;;;;5034982;28;20280;-73
2022/11/13 19:32:16;;;;;;;1999.90;999.90;;;;;;;;;;5033617;28;20217;-73
2022/11/13 19:35:00;;;;;;;1999.90;999.90;;;;;;;;;;5031844;28;20235;-73
2022/11/13 19:37:45;;;;;;;1999.90;999.90;;;;;;;;;;5034420;28;20301;-74
2022/11/13 19:40:30;;;;;;;1999.90;999.90;;;;;;;;;;5015783;28;20218;-73
2022/11/13 19:43:15;;;;;;;1999.90;999.90;;;;;;;;;;5031915;28;20238;-73
2022/11/13 19:46:04;;;;;;;1999.90;999.90;;;;;;;;;;5029002;28;20734;-72
2022/11/13 19:48:49;;;;;;;1999.90;999.90;;;;;;;;;;5033259;28;20248;-73
2022/11/13 19:51:34;;;;;;;1999.90;999.90;;;;;;;;;;5029550;28;20213;-72
2022/11/13 19:54:19;;;;;;;1999.90;999.90;;;;;;;;;;5028034;28;20238;-72
2022/11/13 19:57:04;;;;;;;1999.90;999.90;;;;;;;;;;5034230;28;20210;-73
2022/11/13 19:59:49;;;;;;;1999.90;999.90;;;;;;;;;;5028940;28;20221;-73
2022/11/13 20:02:35;;;;;;;1999.90;999.90;;;;;;;;;;5025776;28;20233;-73
2022/11/13 20:05:20;;;;;;;1999.90;999.90;;;;;;;;;;5014180;28;20207;-73
2022/11/13 20:08:05;;;;;;;1999.90;999.90;;;;;;;;;;5025363;28;20288;-72
2022/11/13 20:10:50;;;;;;;1999.90;999.90;;;;;;;;;;5030089;28;20286;-72
2022/11/13 20:13:35;;;;;;;1999.90;999.90;;;;;;;;;;5034148;28;20229;-73